Time;durP1;ratioP1;P1;durP2;ratioP2;P2;SDS_P1;SDS_P2;PMS_P1;PMS_P2;Temp;Humidity;BMP_temperature;BMP_pressure;BME280_temperature;BME280_humidity;BME280_pressure;Samples;Min_cycle;Max_cycle;Signal;HPM_P1;HPM_P2
2022/04/10 00:01:42;;;;;;;108.40;49.53;;;;;;;;;;5111575;28;20203;-73
2022/04/10 00:04:09;;;;;;;109.47;49.20;;;;;;;;;;5112066;28;20215;-74
2022/04/10 00:06:37;;;;;;;90.72;44.40;;;;;;;;;;5112043;28;20290;-74
2022/04/10 00:09:04;;;;;;;99.88;52.17;;;;;;;;;;5111905;28;20207;-74
2022/04/10 00:11:33;;;;;;;96.03;46.83;;;;;;;;;;5111769;28;20306;-73
2022/04/10 00:14:01;;;;;;;105.53;50.47;;;;;;;;;;5111655;28;20203;-74
2022/04/10 00:16:29;;;;;;;93.13;46.20;;;;;;;;;;5105181;28;20207;-74
2022/04/10 00:19:01;;;;;;;112.32;51.30;;;;;;;;;;5111671;28;20680;-73
2022/04/10 00:21:29;;;;;;;117.03;54.67;;;;;;;;;;5111699;28;20206;-74
2022/04/10 00:23:56;;;;;;;124.50;59.85;;;;;;;;;;5111493;28;20249;-74
2022/04/10 00:26:24;;;;;;;95.63;49.75;;;;;;;;;;5111527;28;20212;-73
2022/04/10 00:28:53;;;;;;;93.50;46.78;;;;;;;;;;5111588;28;20204;-73
2022/04/10 00:31:22;;;;;;;94.50;52.15;;;;;;;;;;5111418;28;20263;-73
2022/04/10 00:33:49;;;;;;;96.03;49.00;;;;;;;;;;5111339;28;20212;-73
2022/04/10 00:36:16;;;;;;;89.30;49.53;;;;;;;;;;5111565;28;20232;-73
2022/04/10 00:38:44;;;;;;;91.50;47.25;;;;;;;;;;5111478;28;20581;-74
2022/04/10 00:41:12;;;;;;;86.55;48.40;;;;;;;;;;5104564;28;20290;-73
2022/04/10 00:43:40;;;;;;;98.72;55.28;;;;;;;;;;5112591;28;20204;-73
2022/04/10 00:46:07;;;;;;;79.13;46.65;;;;;;;;;;5115278;28;20208;-74
2022/04/10 00:48:36;;;;;;;97.30;51.75;;;;;;;;;;5115352;28;20653;-74
2022/04/10 00:53:49;;;;;;;104.32;52.88;;;;;;;;;;5114827;28;20342;-74
2022/04/10 00:56:17;;;;;;;100.18;50.50;;;;;;;;;;5114748;28;20223;-73
2022/04/10 00:58:44;;;;;;;82.37;47.00;;;;;;;;;;5115459;28;20624;-74
2022/04/10 01:01:12;;;;;;;90.10;48.88;;;;;;;;;;5115096;28;20462;-74
2022/04/10 01:03:41;;;;;;;81.40;45.28;;;;;;;;;;5114873;28;20206;-74
2022/04/10 01:06:09;;;;;;;90.32;47.05;;;;;;;;;;5114686;28;20211;-73
2022/04/10 01:08:37;;;;;;;102.47;54.10;;;;;;;;;;5115022;28;20213;-74
2022/04/10 01:11:04;;;;;;;90.65;47.47;;;;;;;;;;5114971;28;20352;-74
2022/04/10 01:13:32;;;;;;;72.85;41.47;;;;;;;;;;5114828;28;20250;-73
2022/04/10 01:16:00;;;;;;;101.10;51.80;;;;;;;;;;5114339;28;20239;-73
2022/04/10 01:18:28;;;;;;;81.20;42.72;;;;;;;;;;5114531;28;20204;-73
2022/04/10 01:20:56;;;;;;;89.47;45.30;;;;;;;;;;5114481;28;20214;-74
2022/04/10 01:23:25;;;;;;;116.70;50.08;;;;;;;;;;5114760;28;20808;-73
2022/04/10 01:25:53;;;;;;;85.70;45.70;;;;;;;;;;5114314;28;20212;-73
2022/04/10 01:28:20;;;;;;;77.20;42.15;;;;;;;;;;5114458;28;20456;-73
2022/04/10 01:30:48;;;;;;;93.05;46.75;;;;;;;;;;5114332;28;20262;-73
2022/04/10 01:33:15;;;;;;;97.13;48.60;;;;;;;;;;5114246;28;20569;-73
2022/04/10 01:35:44;;;;;;;87.85;44.97;;;;;;;;;;5113934;28;20478;-72
2022/04/10 01:38:13;;;;;;;83.82;42.83;;;;;;;;;;5114136;28;20222;-73
2022/04/10 01:40:42;;;;;;;72.25;40.30;;;;;;;;;;5114215;28;20218;-73
2022/04/10 01:43:09;;;;;;;62.60;36.63;;;;;;;;;;5114299;28;20215;-74
2022/04/10 01:45:37;;;;;;;70.00;39.47;;;;;;;;;;5114003;28;20207;-73
2022/04/10 01:48:05;;;;;;;75.80;40.65;;;;;;;;;;5113718;28;20524;-73
2022/04/10 01:50:32;;;;;;;77.15;39.30;;;;;;;;;;5113773;28;20227;-74
2022/04/10 01:53:00;;;;;;;71.05;40.53;;;;;;;;;;5113830;28;20204;-73
2022/04/10 01:55:28;;;;;;;73.10;43.40;;;;;;;;;;5113510;28;20761;-74
2022/04/10 01:57:56;;;;;;;89.55;46.65;;;;;;;;;;5113339;28;20208;-73
2022/04/10 02:00:24;;;;;;;93.18;45.60;;;;;;;;;;5113583;28;20217;-73
2022/04/10 02:02:51;;;;;;;82.70;43.13;;;;;;;;;;5113937;28;20209;-74
2022/04/10 02:05:19;;;;;;;88.30;45.70;;;;;;;;;;5113740;28;20213;-73
2022/04/10 02:07:46;;;;;;;74.63;41.70;;;;;;;;;;5113427;28;20227;-73
2022/04/10 02:10:14;;;;;;;98.35;47.70;;;;;;;;;;5113581;28;20654;-73
2022/04/10 02:12:42;;;;;;;92.43;48.15;;;;;;;;;;5113390;28;20735;-73
2022/04/10 02:15:12;;;;;;;63.53;37.65;;;;;;;;;;5113436;28;20204;-74
2022/04/10 02:17:39;;;;;;;79.93;41.67;;;;;;;;;;5113846;28;20668;-74
2022/04/10 02:20:07;;;;;;;79.22;44.97;;;;;;;;;;5113483;28;20672;-73
2022/04/10 02:22:35;;;;;;;97.25;48.33;;;;;;;;;;5113346;28;20246;-74
2022/04/10 02:25:03;;;;;;;91.18;45.65;;;;;;;;;;5113437;28;20298;-74
2022/04/10 02:27:30;;;;;;;103.18;49.53;;;;;;;;;;5113155;28;20203;-74
2022/04/10 02:29:58;;;;;;;111.43;53.90;;;;;;;;;;5113062;28;20218;-74
2022/04/10 02:32:29;;;;;;;102.18;48.33;;;;;;;;;;5113217;28;20761;-73
2022/04/10 02:34:56;;;;;;;94.57;49.20;;;;;;;;;;5113100;28;20215;-73
2022/04/10 02:37:24;;;;;;;102.95;49.90;;;;;;;;;;5113011;28;20230;-73
2022/04/10 02:39:51;;;;;;;119.30;52.97;;;;;;;;;;5112790;28;20243;-73
2022/04/10 02:42:19;;;;;;;94.72;46.17;;;;;;;;;;5105967;28;20212;-73
2022/04/10 02:44:46;;;;;;;98.75;49.03;;;;;;;;;;5112772;28;20653;-74
2022/04/10 02:47:14;;;;;;;105.57;46.08;;;;;;;;;;5113070;28;20246;-74
2022/04/10 02:49:43;;;;;;;93.32;46.50;;;;;;;;;;5112635;28;20210;-73
2022/04/10 02:52:10;;;;;;;101.60;48.58;;;;;;;;;;5112699;28;20231;-73
2022/04/10 02:54:38;;;;;;;103.13;50.22;;;;;;;;;;5112572;28;20268;-73
2022/04/10 02:57:05;;;;;;;112.72;52.08;;;;;;;;;;5112651;28;20325;-73
2022/04/10 02:59:34;;;;;;;91.55;46.25;;;;;;;;;;5112759;28;20694;-73
2022/04/10 03:02:02;;;;;;;82.88;44.83;;;;;;;;;;5112367;28;20211;-73
2022/04/10 03:04:29;;;;;;;85.03;44.03;;;;;;;;;;5105888;28;20207;-74
2022/04/10 03:06:58;;;;;;;86.25;45.97;;;;;;;;;;5111949;28;20661;-73
2022/04/10 03:09:26;;;;;;;78.93;41.97;;;;;;;;;;5112652;28;20213;-73
2022/04/10 03:11:53;;;;;;;79.95;44.17;;;;;;;;;;5112086;28;20237;-74
2022/04/10 03:14:20;;;;;;;81.38;44.03;;;;;;;;;;5112758;28;20717;-74
2022/04/10 03:16:48;;;;;;;77.55;42.80;;;;;;;;;;5112702;28;20208;-74
2022/04/10 03:19:17;;;;;;;76.45;41.70;;;;;;;;;;5112316;28;20598;-73
2022/04/10 03:21:44;;;;;;;79.65;43.92;;;;;;;;;;5112012;28;20211;-73
2022/04/10 03:24:13;;;;;;;63.20;36.53;;;;;;;;;;5112180;28;20686;-73
2022/04/10 03:26:40;;;;;;;74.88;41.30;;;;;;;;;;5112305;28;20217;-73
2022/04/10 03:29:09;;;;;;;100.60;49.78;;;;;;;;;;5112383;28;20298;-73
2022/04/10 03:31:36;;;;;;;110.25;51.42;;;;;;;;;;5112068;28;20231;-74
2022/04/10 03:34:04;;;;;;;89.47;48.65;;;;;;;;;;5111890;28;20208;-74
2022/04/10 03:36:32;;;;;;;74.97;39.53;;;;;;;;;;5105317;28;20235;-73
2022/04/10 03:38:59;;;;;;;63.67;35.85;;;;;;;;;;5112219;28;20207;-74
2022/04/10 03:41:28;;;;;;;64.82;35.97;;;;;;;;;;5112258;28;20195;-74
2022/04/10 03:43:55;;;;;;;101.00;48.80;;;;;;;;;;5111785;28;20207;-73
2022/04/10 03:46:23;;;;;;;92.60;47.22;;;;;;;;;;5111992;28;20601;-73
2022/04/10 03:48:50;;;;;;;97.70;46.90;;;;;;;;;;5111905;28;20203;-73
2022/04/10 03:51:18;;;;;;;103.82;47.97;;;;;;;;;;5111781;28;20291;-73
2022/04/10 03:53:48;;;;;;;71.18;37.97;;;;;;;;;;5111644;28;20676;-73
2022/04/10 03:56:15;;;;;;;102.70;46.88;;;;;;;;;;5112009;28;20269;-73
2022/04/10 03:58:44;;;;;;;103.63;45.17;;;;;;;;;;5111950;28;20209;-74
2022/04/10 04:01:11;;;;;;;101.50;50.28;;;;;;;;;;5111766;28;20221;-73
2022/04/10 04:03:39;;;;;;;87.65;44.70;;;;;;;;;;5112020;28;20203;-73
2022/04/10 04:06:06;;;;;;;105.40;46.05;;;;;;;;;;5112066;28;20203;-73
2022/04/10 04:08:35;;;;;;;91.18;44.95;;;;;;;;;;5111926;28;20290;-73
2022/04/10 04:11:03;;;;;;;89.25;44.50;;;;;;;;;;5111774;28;20687;-73
2022/04/10 04:13:30;;;;;;;86.97;43.78;;;;;;;;;;5111819;28;20679;-73
2022/04/10 04:15:59;;;;;;;99.75;50.10;;;;;;;;;;5111354;28;20219;-73
2022/04/10 04:18:26;;;;;;;81.25;43.47;;;;;;;;;;5112797;28;20213;-73
2022/04/10 04:20:54;;;;;;;87.63;44.72;;;;;;;;;;5115588;28;20256;-73
2022/04/10 04:23:21;;;;;;;84.30;43.58;;;;;;;;;;5116309;28;20294;-73
2022/04/10 04:25:49;;;;;;;88.90;46.30;;;;;;;;;;5115486;28;20203;-73
2022/04/10 04:28:17;;;;;;;95.20;50.88;;;;;;;;;;5115337;28;20316;-73
2022/04/10 04:30:44;;;;;;;89.13;44.65;;;;;;;;;;5115630;28;20239;-73
2022/04/10 04:33:13;;;;;;;75.50;41.88;;;;;;;;;;5115583;28;20211;-73
2022/04/10 04:35:41;;;;;;;90.45;47.05;;;;;;;;;;5115356;28;20602;-73
2022/04/10 04:38:08;;;;;;;97.25;47.60;;;;;;;;;;5115472;28;20203;-73
2022/04/10 04:40:35;;;;;;;82.65;44.55;;;;;;;;;;5115435;28;20306;-72
2022/04/10 04:43:03;;;;;;;89.07;45.00;;;;;;;;;;5115287;28;20207;-73
2022/04/10 04:45:31;;;;;;;89.47;45.72;;;;;;;;;;5115411;28;20243;-73
2022/04/10 04:47:58;;;;;;;91.55;46.80;;;;;;;;;;5114923;28;20217;-73
2022/04/10 04:50:27;;;;;;;92.00;47.83;;;;;;;;;;5115055;28;20217;-73
2022/04/10 04:52:55;;;;;;;92.43;49.47;;;;;;;;;;5115192;28;20230;-73
2022/04/10 04:55:23;;;;;;;89.88;48.65;;;;;;;;;;5114871;28;20323;-74
2022/04/10 04:57:51;;;;;;;108.30;52.95;;;;;;;;;;5114701;28;20251;-73
2022/04/10 05:00:19;;;;;;;86.50;45.05;;;;;;;;;;5114861;28;20211;-74
2022/04/10 05:02:47;;;;;;;81.13;43.28;;;;;;;;;;5115038;28;20210;-74
2022/04/10 05:05:14;;;;;;;96.43;50.55;;;;;;;;;;5114903;28;20208;-74
2022/04/10 05:07:43;;;;;;;80.93;45.87;;;;;;;;;;5107868;28;20246;-73
2022/04/10 05:10:10;;;;;;;94.67;50.30;;;;;;;;;;5114889;28;20534;-74
2022/04/10 05:12:38;;;;;;;90.35;47.42;;;;;;;;;;5114694;28;20514;-74
2022/04/10 05:15:07;;;;;;;91.27;50.47;;;;;;;;;;5114797;28;20213;-74
2022/04/10 05:17:35;;;;;;;93.97;47.80;;;;;;;;;;5114615;28;20486;-74
2022/04/10 05:20:03;;;;;;;92.47;49.87;;;;;;;;;;5114362;28;20441;-73
2022/04/10 05:22:31;;;;;;;122.20;58.63;;;;;;;;;;5114476;28;20536;-74
2022/04/10 05:25:00;;;;;;;101.80;56.47;;;;;;;;;;5114407;28;20450;-74
2022/04/10 05:27:27;;;;;;;111.20;56.23;;;;;;;;;;5114327;28;20527;-74
2022/04/10 05:29:55;;;;;;;128.33;71.33;;;;;;;;;;5114016;28;20520;-74
2022/04/10 05:32:22;;;;;;;105.77;66.30;;;;;;;;;;5114425;28;20896;-74
2022/04/10 05:34:49;;;;;;;88.60;55.00;;;;;;;;;;5114718;28;20453;-74
2022/04/10 05:37:18;;;;;;;98.10;66.50;;;;;;;;;;5114727;28;20485;-74
2022/04/10 05:39:45;;;;;;;79.37;54.77;;;;;;;;;;5113896;28;20445;-74
2022/04/10 05:42:14;;;;;;;78.17;52.80;;;;;;;;;;5114408;28;20495;-74
2022/04/10 05:44:41;;;;;;;76.97;50.70;;;;;;;;;;5114045;28;20445;-74
2022/04/10 05:47:09;;;;;;;66.93;48.47;;;;;;;;;;5114353;28;20438;-74
2022/04/10 05:49:36;;;;;;;74.60;48.10;;;;;;;;;;5113914;28;20457;-74
2022/04/10 05:52:05;;;;;;;81.77;53.30;;;;;;;;;;5106828;28;20477;-74
2022/04/10 05:54:33;;;;;;;60.40;45.53;;;;;;;;;;5114084;28;20449;-74
2022/04/10 05:57:00;;;;;;;83.10;53.87;;;;;;;;;;5113538;28;21026;-74
2022/04/10 05:59:29;;;;;;;89.50;56.80;;;;;;;;;;5113793;28;20471;-74
2022/04/10 06:01:57;;;;;;;111.43;63.87;;;;;;;;;;5113395;28;20928;-74
2022/04/10 06:04:25;;;;;;;94.97;55.03;;;;;;;;;;5114004;28;20874;-74
2022/04/10 06:06:52;;;;;;;92.13;56.20;;;;;;;;;;5113942;28;20477;-74
2022/04/10 06:09:19;;;;;;;96.60;56.87;;;;;;;;;;5113504;28;20453;-74
2022/04/10 06:11:48;;;;;;;112.60;62.90;;;;;;;;;;5113207;28;20488;-74
2022/04/10 06:14:15;;;;;;;95.13;53.40;;;;;;;;;;5106950;28;20445;-74
2022/04/10 06:16:44;;;;;;;101.17;53.20;;;;;;;;;;5113414;28;20474;-74
2022/04/10 06:19:11;;;;;;;94.37;51.73;;;;;;;;;;5113298;28;20443;-74
2022/04/10 06:21:39;;;;;;;96.57;49.60;;;;;;;;;;5113501;28;20454;-74
2022/04/10 06:24:07;;;;;;;101.33;52.00;;;;;;;;;;5113260;28;20456;-73
2022/04/10 06:26:34;;;;;;;100.60;53.67;;;;;;;;;;5113187;28;20457;-73
2022/04/10 06:29:02;;;;;;;108.13;53.37;;;;;;;;;;5112661;28;20512;-74
2022/04/10 06:31:29;;;;;;;98.80;55.13;;;;;;;;;;5113093;28;21083;-74
2022/04/10 06:33:58;;;;;;;115.80;59.63;;;;;;;;;;5113195;28;20473;-74
2022/04/10 06:36:26;;;;;;;86.67;49.50;;;;;;;;;;5106719;28;20483;-73
2022/04/10 06:38:53;;;;;;;80.10;47.70;;;;;;;;;;5112987;28;20480;-73
2022/04/10 06:41:21;;;;;;;79.00;46.77;;;;;;;;;;5112311;28;20454;-74
2022/04/10 06:43:48;;;;;;;85.30;47.13;;;;;;;;;;5112507;28;20533;-73
2022/04/10 06:46:16;;;;;;;77.27;46.67;;;;;;;;;;5113080;28;20589;-75
2022/04/10 06:48:43;;;;;;;71.37;42.30;;;;;;;;;;5112997;28;20447;-73
2022/04/10 06:51:12;;;;;;;68.87;43.97;;;;;;;;;;5112601;28;20445;-74
2022/04/10 06:53:40;;;;;;;66.77;41.90;;;;;;;;;;5112657;28;20977;-74
2022/04/10 06:56:07;;;;;;;84.75;48.53;;;;;;;;;;5112179;28;20545;-72
2022/04/10 06:58:35;;;;;;;83.90;46.63;;;;;;;;;;5112716;28;20230;-73
2022/04/10 07:01:02;;;;;;;69.85;41.92;;;;;;;;;;5112763;28;20452;-73
2022/04/10 07:03:30;;;;;;;68.67;42.03;;;;;;;;;;5112522;28;20692;-73
2022/04/10 07:05:57;;;;;;;90.40;50.10;;;;;;;;;;5112243;28;20455;-73
2022/04/10 07:08:26;;;;;;;88.75;48.67;;;;;;;;;;5112497;28;20451;-73
2022/04/10 07:10:54;;;;;;;92.57;50.42;;;;;;;;;;5112319;28;20603;-73
2022/04/10 07:13:22;;;;;;;88.03;47.03;;;;;;;;;;5112579;28;20313;-73
2022/04/10 07:15:52;;;;;;;80.18;44.65;;;;;;;;;;5112383;28;20494;-73
2022/04/10 07:18:19;;;;;;;89.55;42.58;;;;;;;;;;5112657;28;20207;-74
2022/04/10 07:20:47;;;;;;;74.43;42.35;;;;;;;;;;5112426;28;20203;-73
2022/04/10 07:26:01;;;;;;;94.53;49.13;;;;;;;;;;5112153;28;20478;-73
2022/04/10 07:28:29;;;;;;;78.05;44.13;;;;;;;;;;5112314;28;20212;-72
2022/04/10 07:30:56;;;;;;;77.07;44.33;;;;;;;;;;5112370;28;20203;-72
2022/04/10 07:33:24;;;;;;;70.60;41.47;;;;;;;;;;5111996;28;20730;-72
2022/04/10 07:35:52;;;;;;;99.72;51.53;;;;;;;;;;5111765;28;20588;-72
2022/04/10 07:38:19;;;;;;;84.25;45.78;;;;;;;;;;5112158;28;20203;-74
2022/04/10 07:40:47;;;;;;;96.40;50.67;;;;;;;;;;5112218;28;20207;-74
2022/04/10 07:43:15;;;;;;;85.78;45.70;;;;;;;;;;5111955;28;20204;-73
2022/04/10 07:48:42;;;;;;;86.03;44.83;;;;;;;;;;5049355;28;20209;-74
2022/04/10 07:51:11;;;;;;;75.97;43.08;;;;;;;;;;5049343;28;20206;-74
2022/04/10 07:53:38;;;;;;;94.00;48.70;;;;;;;;;;5080742;28;20235;-74
2022/04/10 07:56:06;;;;;;;98.07;48.30;;;;;;;;;;5116179;28;20227;-73
2022/04/10 07:58:36;;;;;;;86.63;46.55;;;;;;;;;;5116002;28;20209;-73
2022/04/10 08:01:04;;;;;;;105.03;48.80;;;;;;;;;;5116160;28;20286;-73
2022/04/10 08:03:31;;;;;;;84.63;44.70;;;;;;;;;;5116134;28;20704;-73
2022/04/10 08:05:59;;;;;;;103.80;51.80;;;;;;;;;;5115880;28;20209;-73
2022/04/10 08:08:27;;;;;;;104.20;50.67;;;;;;;;;;5116039;28;20661;-73
2022/04/10 08:10:55;;;;;;;99.65;50.80;;;;;;;;;;5115869;28;20690;-73
2022/04/10 08:13:23;;;;;;;109.63;55.88;;;;;;;;;;5115706;28;20258;-73
2022/04/10 08:15:51;;;;;;;124.70;61.65;;;;;;;;;;5115533;28;20246;-73
2022/04/10 08:18:19;;;;;;;89.07;45.88;;;;;;;;;;5115996;28;20242;-73
2022/04/10 08:20:47;;;;;;;102.70;52.15;;;;;;;;;;5115697;28;20767;-73
2022/04/10 08:23:15;;;;;;;107.00;51.20;;;;;;;;;;5115904;28;20310;-73
2022/04/10 08:25:44;;;;;;;105.68;50.80;;;;;;;;;;5115245;28;20238;-74
2022/04/10 08:28:11;;;;;;;84.32;43.30;;;;;;;;;;5115656;28;20732;-73
2022/04/10 08:30:40;;;;;;;114.72;54.33;;;;;;;;;;5115585;28;20567;-73
2022/04/10 08:33:09;;;;;;;92.68;47.10;;;;;;;;;;5108911;28;20726;-73
2022/04/10 08:35:37;;;;;;;95.40;46.50;;;;;;;;;;5115513;28;20227;-74
2022/04/10 08:38:04;;;;;;;94.95;50.75;;;;;;;;;;5115125;28;20235;-73
2022/04/10 08:40:33;;;;;;;86.20;44.80;;;;;;;;;;5115562;28;20289;-74
2022/04/10 08:43:02;;;;;;;80.05;43.53;;;;;;;;;;5115581;28;20203;-73
2022/04/10 08:45:30;;;;;;;79.43;42.47;;;;;;;;;;5115126;28;20211;-74
2022/04/10 08:47:57;;;;;;;98.63;49.88;;;;;;;;;;5115235;28;20622;-73
2022/04/10 08:50:27;;;;;;;80.47;43.85;;;;;;;;;;5115202;28;20203;-73
2022/04/10 08:52:57;;;;;;;82.25;44.72;;;;;;;;;;5115100;28;20228;-74
2022/04/10 08:55:24;;;;;;;110.60;53.88;;;;;;;;;;5114913;28;20218;-73
2022/04/10 08:57:52;;;;;;;96.43;50.50;;;;;;;;;;5115376;28;20215;-73
2022/04/10 09:00:22;;;;;;;86.40;49.00;;;;;;;;;;5115071;28;20211;-73
2022/04/10 09:02:50;;;;;;;74.60;41.42;;;;;;;;;;5115175;28;20268;-73
2022/04/10 09:05:18;;;;;;;77.30;42.90;;;;;;;;;;5114180;27;20310;-73
2022/04/10 09:08:06;;;;;;;83.53;45.67;;;;;;;;;;5114538;28;20203;-73
2022/04/10 09:10:53;;;;;;;92.80;50.53;;;;;;;;;;5114818;28;20199;-73
2022/04/10 09:13:25;;;;;;;95.97;51.00;;;;;;;;;;5114597;28;20704;-73
2022/04/10 09:15:53;;;;;;;105.28;55.00;;;;;;;;;;5114387;28;20206;-73
2022/04/10 09:18:20;;;;;;;105.40;50.15;;;;;;;;;;5114854;28;20280;-71
2022/04/10 09:21:06;;;;;;;111.05;53.88;;;;;;;;;;5107654;28;20678;-74
2022/04/10 09:23:35;;;;;;;84.10;45.08;;;;;;;;;;5114853;28;20207;-74
2022/04/10 09:26:02;;;;;;;92.03;47.72;;;;;;;;;;5114177;28;20211;-73
2022/04/10 09:28:46;;;;;;;85.70;46.70;;;;;;;;;;5107573;28;20203;-74
2022/04/10 09:31:31;;;;;;;84.60;43.65;;;;;;;;;;5114500;28;20221;-74
2022/04/10 09:33:59;;;;;;;100.88;51.47;;;;;;;;;;5114200;28;20287;-73
2022/04/10 09:36:33;;;;;;;92.40;47.78;;;;;;;;;;5114336;28;20235;-73
2022/04/10 09:39:02;;;;;;;93.32;49.65;;;;;;;;;;5114522;28;20202;-73
2022/04/10 09:41:30;;;;;;;95.10;49.53;;;;;;;;;;5114549;28;20207;-74
2022/04/10 09:44:01;;;;;;;101.95;54.30;;;;;;;;;;5113970;28;20235;-74
2022/04/10 09:46:31;;;;;;;66.75;39.70;;;;;;;;;;5096557;28;20210;-73
2022/04/10 09:49:04;;;;;;;63.47;38.08;;;;;;;;;;5107407;28;20199;-74
2022/04/10 09:51:31;;;;;;;71.57;39.17;;;;;;;;;;5114341;28;20218;-73
2022/04/10 09:54:04;;;;;;;98.72;49.83;;;;;;;;;;5113778;28;20231;-74
2022/04/10 09:56:32;;;;;;;87.93;44.83;;;;;;;;;;5113635;28;20722;-74
2022/04/10 09:59:00;;;;;;;91.90;50.60;;;;;;;;;;5113890;28;20207;-74
2022/04/10 10:01:28;;;;;;;90.43;45.58;;;;;;;;;;5113657;28;20249;-74
2022/04/10 10:03:58;;;;;;;107.20;53.17;;;;;;;;;;5113784;28;20207;-74
2022/04/10 10:06:26;;;;;;;86.47;44.55;;;;;;;;;;5113695;28;20207;-73
2022/04/10 10:08:54;;;;;;;94.47;47.33;;;;;;;;;;5113878;28;20207;-73
2022/04/10 10:11:23;;;;;;;86.35;45.65;;;;;;;;;;5113530;28;20214;-74
2022/04/10 10:13:53;;;;;;;83.15;44.28;;;;;;;;;;5113286;28;20234;-73
2022/04/10 10:16:20;;;;;;;83.68;42.00;;;;;;;;;;5112839;28;20603;-73
2022/04/10 10:18:48;;;;;;;79.30;42.70;;;;;;;;;;5113470;28;20207;-73
2022/04/10 10:21:16;;;;;;;83.30;43.72;;;;;;;;;;5113336;28;20215;-72
2022/04/10 10:23:45;;;;;;;82.90;43.22;;;;;;;;;;5113384;28;20239;-73
2022/04/10 10:26:19;;;;;;;76.97;42.10;;;;;;;;;;5113248;28;20203;-73
2022/04/10 10:28:56;;;;;;;82.00;40.80;;;;;;;;;;5113177;28;20209;-73
2022/04/10 10:31:32;;;;;;;88.80;41.58;;;;;;;;;;5113514;28;20249;-73
2022/04/10 10:34:03;;;;;;;89.65;45.40;;;;;;;;;;5112811;28;20231;-73
2022/04/10 10:36:31;;;;;;;68.45;36.72;;;;;;;;;;5113194;28;20231;-72
2022/04/10 10:38:59;;;;;;;78.82;39.50;;;;;;;;;;5113199;28;20670;-73
2022/04/10 10:41:34;;;;;;;78.13;38.88;;;;;;;;;;5112998;28;20199;-73
2022/04/10 10:44:18;;;;;;;67.60;36.67;;;;;;;;;;5112657;28;20213;-73
2022/04/10 10:47:00;;;;;;;69.45;36.67;;;;;;;;;;5112941;28;20207;-73
2022/04/10 10:49:30;;;;;;;69.75;35.83;;;;;;;;;;5106379;28;20739;-72
2022/04/10 10:52:01;;;;;;;83.25;41.05;;;;;;;;;;5106288;28;20214;-72
2022/04/10 10:54:31;;;;;;;66.57;34.05;;;;;;;;;;5112782;28;20608;-72
2022/04/10 10:56:59;;;;;;;73.20;36.55;;;;;;;;;;5112412;28;20226;-72
2022/04/10 10:59:29;;;;;;;62.65;34.17;;;;;;;;;;5112877;28;20238;-72
2022/04/10 11:02:02;;;;;;;75.90;39.00;;;;;;;;;;5112452;28;20683;-72
2022/04/10 11:04:34;;;;;;;67.38;35.65;;;;;;;;;;5112713;28;20210;-72
2022/04/10 11:07:15;;;;;;;63.20;33.65;;;;;;;;;;5112807;28;20294;-72
2022/04/10 11:09:52;;;;;;;59.95;32.92;;;;;;;;;;5112514;28;20207;-72
2022/04/10 11:12:21;;;;;;;62.72;33.25;;;;;;;;;;5112371;28;20210;-72
2022/04/10 11:14:51;;;;;;;59.15;31.65;;;;;;;;;;5112301;28;20230;-72
2022/04/10 11:17:19;;;;;;;61.90;33.08;;;;;;;;;;5112320;28;20755;-72
2022/04/10 11:19:49;;;;;;;65.32;34.35;;;;;;;;;;5112346;28;20609;-72
2022/04/10 11:22:22;;;;;;;68.55;35.47;;;;;;;;;;5112485;28;20203;-72
2022/04/10 11:24:52;;;;;;;62.58;35.55;;;;;;;;;;5112363;28;20207;-72
2022/04/10 11:27:34;;;;;;;65.13;34.45;;;;;;;;;;5111901;28;20207;-72
2022/04/10 11:30:04;;;;;;;63.92;34.47;;;;;;;;;;5111405;28;20254;-72
2022/04/10 11:32:41;;;;;;;61.80;33.63;;;;;;;;;;5112280;28;20207;-72
2022/04/10 11:35:16;;;;;;;68.15;35.38;;;;;;;;;;5111888;28;20230;-72
2022/04/10 11:37:48;;;;;;;61.47;32.03;;;;;;;;;;5112091;28;20213;-72
2022/04/10 11:40:16;;;;;;;54.17;31.05;;;;;;;;;;5112232;28;20211;-72
2022/04/10 11:42:44;;;;;;;58.90;32.05;;;;;;;;;;5112021;28;20725;-72
2022/04/10 11:45:12;;;;;;;67.60;35.10;;;;;;;;;;5112135;28;20662;-72
2022/04/10 11:47:41;;;;;;;66.93;34.45;;;;;;;;;;5112129;28;20595;-72
2022/04/10 11:50:11;;;;;;;63.58;33.72;;;;;;;;;;5111994;28;20234;-72
2022/04/10 11:52:41;;;;;;;68.13;35.45;;;;;;;;;;5112525;28;20211;-72
2022/04/10 11:55:11;;;;;;;64.13;34.83;;;;;;;;;;5111894;28;20211;-72
2022/04/10 11:57:39;;;;;;;61.88;34.05;;;;;;;;;;5105213;28;20306;-72
2022/04/10 12:00:09;;;;;;;61.72;33.65;;;;;;;;;;5111801;28;20214;-72
2022/04/10 12:02:38;;;;;;;62.55;34.63;;;;;;;;;;5112088;28;20207;-72
2022/04/10 12:05:06;;;;;;;60.67;33.30;;;;;;;;;;5111805;28;20684;-72
2022/04/10 12:07:33;;;;;;;58.17;32.95;;;;;;;;;;5112019;28;20207;-72
2022/04/10 12:10:02;;;;;;;53.97;30.92;;;;;;;;;;5111510;28;20211;-72
2022/04/10 12:12:36;;;;;;;49.75;28.95;;;;;;;;;;5111950;28;20204;-72
2022/04/10 12:15:04;;;;;;;60.67;32.15;;;;;;;;;;5111664;28;20258;-72
2022/04/10 12:17:31;;;;;;;60.17;32.17;;;;;;;;;;5111977;28;20248;-72
2022/04/10 12:19:59;;;;;;;79.25;38.70;;;;;;;;;;5111450;28;20206;-72
2022/04/10 12:22:26;;;;;;;56.05;30.52;;;;;;;;;;5111856;28;20207;-72
2022/04/10 12:24:58;;;;;;;47.38;28.20;;;;;;;;;;5111711;28;20219;-72
2022/04/10 12:27:27;;;;;;;61.97;33.28;;;;;;;;;;5111685;28;20667;-72
2022/04/10 12:29:55;;;;;;;74.55;37.60;;;;;;;;;;5111426;28;20220;-72
2022/04/10 12:32:23;;;;;;;59.97;32.47;;;;;;;;;;5111592;28;20214;-72
2022/04/10 12:34:53;;;;;;;63.85;33.72;;;;;;;;;;5111741;28;20329;-72
2022/04/10 12:37:21;;;;;;;65.07;33.88;;;;;;;;;;5111467;28;20242;-72
2022/04/10 12:39:49;;;;;;;70.63;34.97;;;;;;;;;;5112771;28;20257;-72
2022/04/10 12:42:19;;;;;;;66.53;33.65;;;;;;;;;;5115446;28;20659;-72
2022/04/10 12:44:57;;;;;;;64.68;33.83;;;;;;;;;;5115302;28;20214;-72
2022/04/10 12:47:39;;;;;;;61.53;33.00;;;;;;;;;;5115224;28;20206;-72
2022/04/10 12:50:07;;;;;;;65.28;33.78;;;;;;;;;;5115254;28;20675;-72
2022/04/10 12:52:36;;;;;;;73.18;36.60;;;;;;;;;;5115005;28;20220;-72
2022/04/10 12:55:05;;;;;;;70.95;35.45;;;;;;;;;;5115200;28;20230;-72
2022/04/10 12:57:33;;;;;;;75.65;36.33;;;;;;;;;;5114874;28;20761;-72
2022/04/10 13:00:01;;;;;;;94.28;44.10;;;;;;;;;;5114844;28;20214;-72
2022/04/10 13:02:30;;;;;;;70.65;35.05;;;;;;;;;;5115202;28;20293;-72
2022/04/10 13:04:58;;;;;;;83.78;39.33;;;;;;;;;;5114820;28;20691;-72
2022/04/10 13:07:27;;;;;;;84.10;37.90;;;;;;;;;;5114902;28;20205;-72
2022/04/10 13:10:04;;;;;;;91.05;41.92;;;;;;;;;;5114196;28;20242;-72
2022/04/10 13:12:32;;;;;;;73.10;35.67;;;;;;;;;;5115086;28;20221;-72
2022/04/10 13:15:00;;;;;;;82.00;36.85;;;;;;;;;;5114746;28;20340;-72
2022/04/10 13:17:33;;;;;;;78.07;37.50;;;;;;;;;;5114567;28;20204;-72
2022/04/10 13:20:05;;;;;;;89.25;38.65;;;;;;;;;;5114556;28;20209;-72
2022/04/10 13:22:33;;;;;;;78.18;36.75;;;;;;;;;;5114681;28;20746;-72
2022/04/10 13:25:00;;;;;;;73.95;36.10;;;;;;;;;;5114802;28;20659;-72
2022/04/10 13:27:28;;;;;;;77.70;37.05;;;;;;;;;;5114441;28;20213;-72
2022/04/10 13:29:55;;;;;;;91.03;43.17;;;;;;;;;;5114166;28;20209;-72
2022/04/10 13:32:22;;;;;;;69.15;33.90;;;;;;;;;;5114545;28;20211;-72
2022/04/10 13:34:52;;;;;;;76.30;36.70;;;;;;;;;;5114656;28;20237;-72
2022/04/10 13:37:21;;;;;;;73.45;34.97;;;;;;;;;;5108015;28;20325;-72
2022/04/10 13:39:48;;;;;;;61.17;32.80;;;;;;;;;;5114137;28;20201;-72
2022/04/10 13:42:16;;;;;;;66.43;34.25;;;;;;;;;;5114089;28;20201;-72
2022/04/10 13:44:45;;;;;;;61.72;33.38;;;;;;;;;;5114021;28;20203;-72
2022/04/10 13:47:13;;;;;;;66.78;33.53;;;;;;;;;;5114254;28;20210;-72
2022/04/10 13:49:40;;;;;;;68.22;35.25;;;;;;;;;;5114057;28;20667;-72
2022/04/10 13:52:09;;;;;;;64.72;33.45;;;;;;;;;;5113720;28;20691;-72
2022/04/10 13:54:37;;;;;;;60.10;32.58;;;;;;;;;;5113839;28;20714;-72
2022/04/10 13:57:05;;;;;;;75.53;37.03;;;;;;;;;;5113749;28;20260;-72
2022/04/10 13:59:33;;;;;;;73.03;36.20;;;;;;;;;;5114124;28;20220;-72
2022/04/10 14:02:00;;;;;;;71.97;35.45;;;;;;;;;;5107181;28;20637;-72
2022/04/10 14:04:28;;;;;;;75.22;36.63;;;;;;;;;;5113855;28;20215;-72
2022/04/10 14:06:55;;;;;;;76.47;37.03;;;;;;;;;;5113714;28;20305;-72
2022/04/10 14:09:24;;;;;;;83.03;40.95;;;;;;;;;;5113625;28;20599;-72
2022/04/10 14:11:52;;;;;;;85.35;42.10;;;;;;;;;;5113259;28;20662;-72
2022/04/10 14:14:20;;;;;;;77.85;37.40;;;;;;;;;;5113527;28;20260;-72
2022/04/10 14:16:47;;;;;;;66.28;35.00;;;;;;;;;;5113769;28;20274;-72
2022/04/10 14:19:15;;;;;;;78.90;38.95;;;;;;;;;;5113721;28;20206;-72
2022/04/10 14:21:42;;;;;;;64.25;34.58;;;;;;;;;;5113303;28;20662;-72
2022/04/10 14:24:09;;;;;;;69.13;35.78;;;;;;;;;;5106511;28;20203;-72
2022/04/10 14:26:38;;;;;;;66.95;35.58;;;;;;;;;;5113525;28;20213;-72
2022/04/10 14:29:06;;;;;;;67.30;35.42;;;;;;;;;;5113447;28;20266;-72
2022/04/10 14:31:35;;;;;;;68.05;35.33;;;;;;;;;;5113308;28;20205;-72
2022/04/10 14:34:04;;;;;;;76.93;38.20;;;;;;;;;;5112829;28;20688;-72